createdAt,value
2022-09-02T01:36:43.299Z,23.60
2022-09-02T01:39:12.367Z,23.60
2022-09-02T01:41:39.654Z,23.50
2022-09-02T01:44:07.765Z,23.50
2022-09-02T01:46:36.500Z,23.40
2022-09-02T01:49:04.518Z,23.50
2022-09-02T01:51:31.714Z,23.40
2022-09-02T01:54:00.290Z,23.40
2022-09-02T01:56:27.348Z,23.40
2022-09-02T01:58:54.301Z,23.40
2022-09-02T02:01:21.615Z,23.30
2022-09-02T02:03:48.773Z,23.30
2022-09-02T02:06:17.577Z,23.30
2022-09-02T02:08:45.363Z,23.20
2022-09-02T02:11:18.475Z,23.20
2022-09-02T02:13:49.398Z,23.10
2022-09-02T02:16:16.604Z,23.10
2022-09-02T02:18:43.628Z,23.10
2022-09-02T02:21:11.497Z,23.00
2022-09-02T02:23:38.367Z,22.90
2022-09-02T02:26:06.799Z,22.90
2022-09-02T02:28:33.675Z,22.80
2022-09-02T02:31:02.962Z,22.70
2022-09-02T02:33:31.947Z,22.70
2022-09-02T02:36:05.638Z,22.60
2022-09-02T02:38:34.602Z,22.50
2022-09-02T02:41:03.167Z,22.50
2022-09-02T02:43:30.011Z,22.50
2022-09-02T02:50:12.527Z,22.40
2022-09-02T02:52:41.056Z,22.30
2022-09-02T02:55:09.855Z,22.30
2022-09-02T02:57:39.143Z,22.30
2022-09-02T03:00:19.623Z,22.20
2022-09-02T03:02:48.553Z,22.20
2022-09-02T03:05:19.383Z,22.20
2022-09-02T03:07:47.121Z,22.20
2022-09-02T03:10:15.954Z,22.20
2022-09-02T03:12:47.724Z,22.20
2022-09-02T03:15:19.276Z,22.20
2022-09-02T03:17:48.531Z,22.20
2022-09-02T03:20:17.018Z,22.20
2022-09-02T03:22:50.585Z,22.10
2022-09-02T03:25:20.888Z,22.10
2022-09-02T03:27:49.201Z,22.10
2022-09-02T03:30:23.409Z,22.00
2022-09-02T03:32:52.038Z,22.00
2022-09-02T03:35:22.264Z,22.00
2022-09-02T03:37:51.011Z,22.00
2022-09-02T03:40:21.736Z,21.90
2022-09-02T03:42:50.153Z,21.90
2022-09-02T03:45:17.940Z,21.80
2022-09-02T03:47:56.870Z,21.80
2022-09-02T03:50:31.378Z,21.70
2022-09-02T03:53:00.757Z,21.70
2022-09-02T03:55:30.122Z,21.70
2022-09-02T03:57:59.542Z,21.60
2022-09-02T04:00:32.884Z,21.60
2022-09-02T04:03:03.942Z,21.50
2022-09-02T04:05:32.605Z,21.50
2022-09-02T04:08:01.416Z,21.50
2022-09-02T04:10:29.170Z,21.50
2022-09-02T04:12:56.569Z,21.50
2022-09-02T04:15:23.486Z,21.50
2022-09-02T04:17:51.281Z,21.50
2022-09-02T04:20:20.575Z,21.50
2022-09-02T04:22:47.601Z,21.50
2022-09-02T04:25:15.712Z,21.50
2022-09-02T04:27:43.558Z,21.50
2022-09-02T04:30:11.733Z,21.50
2022-09-02T04:32:40.998Z,21.60
2022-09-02T04:35:09.261Z,21.60
2022-09-02T04:37:37.029Z,21.60
2022-09-02T04:40:04.906Z,21.60
2022-09-02T04:42:31.919Z,21.60
2022-09-02T04:44:59.369Z,21.60
2022-09-02T04:47:27.811Z,21.60
2022-09-02T04:49:55.673Z,21.60
2022-09-02T04:52:22.951Z,21.70
2022-09-02T04:54:50.794Z,21.70
2022-09-02T04:57:18.134Z,21.70
2022-09-02T04:59:45.333Z,21.70
2022-09-02T05:02:12.634Z,21.70
2022-09-02T05:04:40.688Z,21.70
2022-09-02T05:07:16.122Z,21.70
2022-09-02T05:09:45.479Z,21.70
2022-09-02T05:12:13.383Z,21.80
2022-09-02T05:14:48.870Z,21.80
2022-09-02T05:17:17.706Z,21.80
2022-09-02T05:19:47.209Z,21.80
2022-09-02T05:22:16.070Z,21.80
2022-09-02T05:24:44.104Z,21.80
2022-09-02T05:27:16.039Z,21.80
2022-09-02T05:29:45.462Z,21.80
2022-09-02T05:32:13.732Z,21.80
2022-09-02T05:34:40.648Z,21.90
2022-09-02T05:37:07.718Z,21.90
2022-09-02T05:39:35.882Z,21.90
2022-09-02T05:42:04.070Z,21.90
2022-09-02T05:44:32.239Z,22.00
2022-09-02T05:47:00.338Z,22.00
2022-09-02T05:49:27.957Z,22.00
2022-09-02T05:52:01.022Z,22.10
2022-09-02T05:54:37.041Z,22.10
2022-09-02T05:57:14.022Z,22.10
2022-09-02T06:00:08.010Z,22.20
2022-09-02T06:02:41.192Z,22.20
2022-09-02T06:05:12.062Z,22.20
2022-09-02T06:07:42.677Z,22.20
2022-09-02T06:10:09.813Z,22.30
2022-09-02T06:12:41.954Z,22.30
2022-09-02T06:15:10.473Z,22.30
2022-09-02T06:17:38.648Z,22.30
2022-09-02T06:20:06.504Z,22.40
2022-09-02T06:22:33.934Z,22.40
2022-09-02T06:25:00.892Z,22.50
2022-09-02T06:27:29.402Z,22.50
2022-09-02T06:29:56.416Z,22.60
2022-09-02T06:32:25.386Z,22.60
2022-09-02T06:34:58.696Z,22.60
2022-09-02T06:37:26.751Z,22.70
2022-09-02T06:39:54.509Z,22.70
2022-09-02T06:42:24.415Z,22.70
2022-09-02T06:45:11.873Z,22.80
2022-09-02T06:47:39.718Z,22.80
2022-09-02T06:50:08.501Z,22.80
2022-09-02T06:52:35.585Z,22.90
2022-09-02T06:55:04.636Z,22.90
2022-09-02T06:57:34.144Z,23.00
2022-09-02T07:00:08.502Z,23.00
2022-09-02T07:02:37.533Z,23.10
2022-09-02T07:05:11.237Z,23.20
2022-09-02T07:07:41.019Z,23.20
2022-09-02T07:10:13.673Z,23.30
2022-09-02T07:12:44.481Z,23.40
2022-09-02T07:15:14.414Z,23.50
2022-09-02T07:17:42.755Z,23.50
2022-09-02T07:20:14.644Z,23.60
2022-09-02T07:22:46.317Z,23.70
2022-09-02T07:25:17.206Z,23.80
2022-09-02T07:27:44.616Z,23.80
2022-09-02T07:30:13.149Z,23.90
2022-09-02T07:32:42.869Z,24.00
2022-09-02T07:35:10.337Z,24.10
2022-09-02T07:37:38.444Z,24.20
2022-09-02T07:40:10.319Z,24.20
2022-09-02T07:42:38.273Z,24.30
2022-09-02T07:45:06.795Z,24.40
2022-09-02T07:47:34.885Z,24.40
2022-09-02T07:50:22.073Z,24.50
2022-09-02T07:52:58.141Z,24.60
2022-09-02T07:55:26.986Z,24.70
2022-09-02T07:57:55.553Z,24.80
2022-09-02T08:00:27.380Z,24.80
2022-09-02T08:02:56.308Z,24.80
2022-09-02T08:05:28.809Z,25.00
2022-09-02T08:07:56.085Z,25.00
2022-09-02T08:10:27.150Z,25.10
2022-09-02T08:12:54.058Z,25.10
2022-09-02T08:15:21.742Z,25.20
2022-09-02T08:17:49.441Z,25.20
2022-09-02T08:20:17.895Z,25.30
2022-09-02T08:22:47.956Z,25.30
2022-09-02T08:25:21.401Z,25.40
2022-09-02T08:27:48.212Z,25.40
2022-09-02T08:30:15.584Z,25.40
2022-09-02T08:32:42.628Z,25.40
2022-09-02T08:35:10.821Z,25.50
2022-09-02T08:37:38.368Z,25.50
2022-09-02T08:40:13.441Z,25.50
2022-09-02T08:42:57.261Z,25.60
2022-09-02T08:45:39.986Z,25.60
2022-09-02T08:48:19.901Z,25.70
2022-09-02T08:50:49.758Z,25.70
2022-09-02T08:53:27.128Z,25.80
2022-09-02T08:55:57.028Z,25.80
2022-09-02T08:58:28.269Z,25.90
2022-09-02T09:01:33.828Z,25.90
2022-09-02T09:04:31.185Z,26.00
2022-09-02T09:07:09.986Z,26.10
2022-09-02T09:10:02.010Z,26.10
2022-09-02T09:12:40.500Z,26.20
2022-09-02T09:15:38.609Z,26.20
2022-09-02T09:18:20.895Z,26.30
2022-09-02T09:20:48.727Z,26.30
2022-09-02T09:23:28.079Z,26.30
2022-09-02T09:26:05.297Z,26.40
2022-09-02T09:28:32.160Z,26.40
2022-09-02T09:31:02.232Z,26.50
2022-09-02T09:33:29.321Z,26.50
2022-09-02T09:35:58.638Z,26.50
2022-09-02T09:38:31.484Z,26.50
2022-09-02T09:41:31.015Z,26.60
2022-09-02T09:43:57.821Z,26.60
2022-09-02T09:46:32.200Z,26.60
2022-09-02T09:48:58.945Z,26.60
2022-09-02T09:51:26.067Z,26.60
2022-09-02T09:53:53.317Z,26.60
2022-09-02T09:56:37.665Z,26.60
2022-09-02T09:59:09.204Z,26.60
2022-09-02T10:01:37.160Z,26.70
2022-09-02T10:04:41.807Z,26.70
2022-09-02T10:07:13.445Z,26.70
2022-09-02T10:09:40.684Z,26.80
2022-09-02T10:12:33.881Z,26.80
2022-09-02T10:15:00.684Z,26.90
2022-09-02T10:17:33.720Z,26.80
2022-09-02T10:20:14.731Z,26.80
2022-09-02T10:23:05.668Z,26.90
2022-09-02T10:25:47.794Z,26.90
2022-09-02T10:28:26.729Z,26.90
2022-09-02T10:31:06.900Z,26.80
2022-09-02T10:33:58.093Z,26.80
2022-09-02T10:36:36.649Z,26.80
2022-09-02T10:39:36.391Z,26.80
2022-09-02T10:42:32.533Z,26.70
2022-09-02T10:45:30.872Z,26.80
2022-09-02T10:48:06.580Z,26.80
2022-09-02T10:50:45.562Z,26.80
2022-09-02T10:53:47.157Z,26.80
2022-09-02T10:56:24.361Z,26.80
2022-09-02T10:59:20.505Z,26.90
2022-09-02T11:01:57.597Z,27.00
2022-09-02T11:04:30.576Z,27.00
2022-09-02T11:07:03.854Z,27.10
2022-09-02T11:09:46.111Z,27.10
2022-09-02T11:12:39.449Z,27.10
2022-09-02T11:15:15.961Z,27.20
2022-09-02T11:17:50.069Z,27.20
2022-09-02T11:20:35.745Z,27.20
2022-09-02T11:23:41.538Z,27.30
2022-09-02T11:26:18.833Z,27.30
2022-09-02T11:28:58.488Z,27.40
2022-09-02T11:31:47.883Z,27.40
2022-09-02T11:34:35.135Z,27.40
2022-09-02T11:37:05.586Z,27.50
2022-09-02T11:40:11.204Z,27.50
2022-09-02T11:43:03.720Z,27.50
2022-09-02T11:45:39.759Z,27.60
2022-09-02T11:48:29.465Z,27.60
2022-09-02T11:51:15.119Z,27.60
2022-09-02T11:53:45.131Z,27.60
2022-09-02T11:56:24.524Z,27.60
2022-09-02T11:58:53.152Z,27.60
2022-09-02T12:01:33.256Z,27.70
2022-09-02T12:07:10.166Z,27.70
2022-09-02T12:09:52.611Z,27.70
2022-09-02T12:12:43.027Z,27.70
2022-09-02T12:15:16.922Z,27.70
2022-09-02T12:17:45.437Z,27.70
2022-09-02T12:20:41.952Z,27.70
2022-09-02T12:23:31.235Z,27.70
2022-09-02T12:26:06.823Z,27.70
2022-09-02T12:28:34.175Z,27.70
2022-09-02T12:31:08.769Z,27.60
2022-09-02T12:33:55.035Z,27.60
2022-09-02T12:36:36.753Z,27.70
2022-09-02T12:39:28.286Z,27.70
2022-09-02T12:41:58.034Z,27.70
2022-09-02T12:44:43.438Z,27.70
2022-09-02T12:47:32.332Z,27.70
2022-09-02T12:50:26.821Z,27.70
2022-09-02T12:53:24.819Z,27.70
2022-09-02T12:55:57.089Z,27.70
2022-09-02T12:58:24.869Z,27.70
2022-09-02T13:01:23.930Z,27.70
2022-09-02T13:04:17.462Z,27.70
2022-09-02T13:07:10.622Z,27.70
2022-09-02T13:09:58.589Z,27.80
2022-09-02T13:12:53.355Z,27.70
2022-09-02T13:15:43.213Z,27.70
2022-09-02T13:18:28.059Z,27.80
2022-09-02T13:21:14.364Z,27.80
2022-09-02T13:24:00.260Z,27.80
2022-09-02T13:26:49.367Z,27.90
2022-09-02T13:29:41.911Z,27.90
2022-09-02T13:32:20.648Z,27.90
2022-09-02T13:34:50.699Z,27.90
2022-09-02T13:37:31.285Z,28.00
2022-09-02T13:39:59.508Z,28.00
2022-09-02T13:42:31.979Z,28.10
2022-09-02T13:45:14.581Z,28.10
2022-09-02T13:47:50.813Z,28.10
2022-09-02T13:50:21.275Z,28.10
2022-09-02T13:53:45.939Z,28.20
2022-09-02T13:55:47.003Z,28.20
2022-09-02T13:58:40.174Z,28.20
2022-09-02T14:01:31.207Z,28.20
2022-09-02T14:04:02.130Z,28.20
2022-09-02T14:06:33.323Z,28.20
2022-09-02T14:09:03.066Z,28.20
2022-09-02T14:11:38.311Z,28.20
2022-09-02T14:14:05.432Z,28.20
2022-09-02T14:16:34.920Z,28.30
2022-09-02T14:19:16.756Z,28.30
2022-09-02T14:21:50.203Z,28.20
2022-09-02T14:24:29.033Z,28.30
2022-09-02T14:26:57.848Z,28.30
2022-09-02T14:29:26.168Z,28.40
2022-09-02T14:32:16.187Z,28.40
2022-09-02T14:34:45.253Z,28.40
2022-09-02T14:37:23.029Z,28.40
2022-09-02T14:40:12.672Z,28.40
2022-09-02T14:42:43.665Z,28.40
2022-09-02T14:45:12.037Z,28.30
2022-09-02T14:47:40.187Z,28.40
2022-09-02T14:50:12.654Z,28.40
2022-09-02T14:52:50.081Z,28.30
2022-09-02T14:55:52.656Z,28.30
2022-09-02T14:58:23.241Z,28.40
2022-09-02T15:00:56.749Z,28.40
2022-09-02T15:03:24.481Z,28.40
2022-09-02T15:05:52.407Z,28.40
2022-09-02T15:08:19.614Z,28.40
2022-09-02T15:10:46.914Z,28.40
2022-09-02T15:13:29.276Z,28.40
2022-09-02T15:15:57.992Z,28.40
2022-09-02T15:18:25.146Z,28.50
2022-09-02T15:20:52.626Z,28.50
2022-09-02T15:23:19.471Z,28.50
2022-09-02T15:25:47.222Z,28.50
2022-09-02T15:28:14.023Z,28.40
2022-09-02T15:30:40.898Z,28.50
2022-09-02T15:33:09.004Z,28.50
2022-09-02T15:35:43.574Z,28.40
2022-09-02T15:38:10.366Z,28.40
2022-09-02T15:40:37.305Z,28.40
2022-09-02T15:43:04.099Z,28.40
2022-09-02T15:45:31.231Z,28.40
2022-09-02T15:47:59.512Z,28.40
2022-09-02T15:50:31.167Z,28.40
2022-09-02T15:52:58.264Z,28.40
2022-09-02T15:55:29.058Z,28.40
2022-09-02T15:57:57.112Z,28.40
2022-09-02T16:00:27.728Z,28.50
2022-09-02T16:02:57.283Z,28.50
2022-09-02T16:05:24.564Z,28.40
2022-09-02T16:07:55.157Z,28.50
2022-09-02T16:10:22.458Z,28.50
2022-09-02T16:12:49.332Z,28.50
2022-09-02T16:15:16.323Z,28.50
2022-09-02T16:17:43.162Z,28.50
2022-09-02T16:20:10.379Z,28.50
2022-09-02T16:22:37.454Z,28.50
2022-09-02T16:25:04.529Z,28.50
2022-09-02T16:27:50.180Z,28.50
2022-09-02T16:30:17.420Z,28.50
2022-09-02T16:32:44.395Z,28.50
2022-09-02T16:35:11.293Z,28.50
2022-09-02T16:37:38.087Z,28.50
2022-09-02T16:40:05.710Z,28.50
2022-09-02T16:42:37.430Z,28.50
2022-09-02T16:45:05.651Z,28.50
2022-09-02T16:47:32.470Z,28.50
2022-09-02T16:49:59.290Z,28.50
2022-09-02T16:52:26.086Z,28.50
2022-09-02T16:54:52.861Z,28.40
2022-09-02T16:57:19.662Z,28.40
2022-09-02T16:59:46.481Z,28.40
2022-09-02T17:02:13.303Z,28.40
2022-09-02T17:04:40.177Z,28.40
2022-09-02T17:07:07.073Z,28.40
2022-09-02T17:09:33.859Z,28.40
2022-09-02T17:12:00.796Z,28.40
2022-09-02T17:14:27.680Z,28.30
2022-09-02T17:16:54.868Z,28.30
2022-09-02T17:19:22.466Z,28.30
2022-09-02T17:21:53.718Z,28.30
2022-09-02T17:24:23.791Z,28.30
2022-09-02T17:26:54.319Z,28.30
2022-09-02T17:32:10.023Z,28.30
2022-09-02T17:34:37.306Z,28.20
2022-09-02T17:37:05.205Z,28.20
2022-09-02T17:39:33.871Z,28.20
2022-09-02T17:42:01.873Z,28.20
2022-09-02T17:44:37.623Z,28.10
2022-09-02T17:47:11.140Z,28.10
2022-09-02T17:49:41.204Z,28.10
2022-09-02T17:52:09.268Z,28.00
2022-09-02T17:54:37.261Z,28.00
2022-09-02T17:57:36.242Z,28.00
2022-09-02T18:00:16.858Z,27.90
2022-09-02T18:02:55.214Z,27.90
2022-09-02T18:05:29.189Z,27.80
2022-09-02T18:08:03.488Z,27.80
2022-09-02T18:10:36.703Z,27.80
2022-09-02T18:13:16.302Z,27.80
2022-09-02T18:15:52.045Z,27.70
2022-09-02T18:18:21.713Z,27.70
2022-09-02T18:20:56.231Z,27.60
2022-09-02T18:23:37.029Z,27.60
2022-09-02T18:26:12.995Z,27.60
2022-09-02T18:28:58.751Z,27.60
2022-09-02T18:31:25.587Z,27.50
2022-09-02T18:34:11.864Z,27.50
2022-09-02T18:36:48.753Z,27.50
2022-09-02T18:39:18.580Z,27.40
2022-09-02T18:42:01.451Z,27.40
2022-09-02T18:44:39.061Z,27.40
2022-09-02T18:47:13.048Z,27.40
2022-09-02T18:49:39.993Z,27.30
2022-09-02T18:52:10.539Z,27.30
2022-09-02T18:54:51.741Z,27.30
2022-09-02T18:57:18.609Z,27.30
2022-09-02T18:59:59.337Z,27.30
2022-09-02T19:02:40.200Z,27.20
2022-09-02T19:05:10.013Z,27.20
2022-09-02T19:08:00.916Z,27.20
2022-09-02T19:10:27.851Z,27.10
2022-09-02T19:12:57.183Z,27.10
2022-09-02T19:15:25.126Z,27.10
2022-09-02T19:17:52.288Z,27.00
2022-09-02T19:20:19.428Z,27.00
2022-09-02T19:22:52.338Z,27.00
2022-09-02T19:25:25.389Z,27.00
2022-09-02T19:27:53.994Z,27.00
2022-09-02T19:30:22.845Z,26.90
2022-09-02T19:32:53.634Z,26.90
2022-09-02T19:35:24.778Z,26.90
2022-09-02T19:37:53.804Z,26.90
2022-09-02T19:40:23.984Z,26.80
2022-09-02T19:42:53.977Z,26.80
2022-09-02T19:45:22.323Z,26.80
2022-09-02T19:48:06.629Z,26.70
2022-09-02T19:50:37.193Z,26.70
2022-09-02T19:53:04.553Z,26.70
2022-09-02T19:55:33.758Z,26.60
2022-09-02T19:58:00.829Z,26.60
2022-09-02T20:00:28.035Z,26.60
2022-09-02T20:02:55.727Z,26.60
2022-09-02T20:05:25.746Z,26.60
2022-09-02T20:07:54.875Z,26.50
2022-09-02T20:10:27.992Z,26.50
2022-09-02T20:12:57.774Z,26.50
2022-09-02T20:15:24.594Z,26.50
2022-09-02T20:17:51.641Z,26.40
2022-09-02T20:20:21.692Z,26.30
2022-09-02T20:22:54.651Z,26.30
2022-09-02T20:25:31.136Z,26.30
2022-09-02T20:28:04.742Z,26.30
2022-09-02T20:30:35.988Z,26.20
2022-09-02T20:33:14.794Z,26.20
2022-09-02T20:35:59.356Z,26.10
2022-09-02T20:38:54.289Z,26.10
2022-09-02T20:41:39.727Z,26.10
2022-09-02T20:44:34.006Z,26.10
2022-09-02T20:47:28.400Z,26.00
2022-09-02T20:50:06.105Z,26.00
2022-09-02T20:52:54.896Z,26.00
2022-09-02T20:55:47.258Z,26.00
2022-09-02T20:58:30.380Z,25.90
2022-09-02T21:01:02.531Z,25.90
2022-09-02T21:04:03.569Z,25.90
2022-09-02T21:06:45.447Z,25.80
2022-09-02T21:09:50.681Z,25.80
2022-09-02T21:12:24.305Z,25.80
2022-09-02T21:15:12.684Z,25.80
2022-09-02T21:17:48.923Z,25.80
2022-09-02T21:20:47.982Z,25.80
2022-09-02T21:23:29.836Z,25.80
2022-09-02T21:25:59.799Z,25.80
2022-09-02T21:28:40.647Z,25.70
2022-09-02T21:31:16.991Z,25.70
2022-09-02T21:33:46.108Z,25.70
2022-09-02T21:36:24.679Z,25.70
2022-09-02T21:38:54.129Z,25.60
2022-09-02T21:41:31.109Z,25.60
2022-09-02T21:44:16.826Z,25.60
2022-09-02T21:47:03.818Z,25.60
2022-09-02T21:49:49.424Z,25.60
2022-09-02T21:52:26.796Z,25.50
2022-09-02T21:55:10.714Z,25.50
2022-09-02T21:57:45.338Z,25.50
2022-09-02T22:00:16.733Z,25.50
2022-09-02T22:02:50.031Z,25.40
2022-09-02T22:05:44.070Z,25.40
2022-09-02T22:08:42.337Z,25.40
2022-09-02T22:11:32.576Z,25.40
2022-09-02T22:14:16.117Z,25.40
2022-09-02T22:16:55.983Z,25.40
2022-09-02T22:19:29.943Z,25.30
2022-09-02T22:22:14.532Z,25.30
2022-09-02T22:24:41.410Z,25.30
2022-09-02T22:27:19.855Z,25.30
2022-09-02T22:30:10.037Z,25.20
2022-09-02T22:32:46.564Z,25.20
2022-09-02T22:35:25.071Z,25.20
2022-09-02T22:38:10.400Z,25.20
2022-09-02T22:40:44.366Z,25.10
2022-09-02T22:43:15.629Z,25.10
2022-09-02T22:46:18.167Z,25.00
2022-09-02T22:49:28.489Z,25.00
2022-09-02T22:52:32.273Z,25.00
2022-09-02T22:54:59.110Z,25.00
2022-09-02T22:57:54.176Z,25.00
2022-09-02T23:00:23.034Z,24.90
2022-09-02T23:03:08.915Z,24.90
2022-09-02T23:06:08.002Z,24.90
2022-09-02T23:08:37.842Z,24.80
2022-09-02T23:11:12.963Z,24.80
2022-09-02T23:14:10.022Z,24.80
2022-09-02T23:17:06.831Z,24.70
2022-09-02T23:19:58.937Z,24.70
2022-09-02T23:22:49.853Z,24.70
2022-09-02T23:25:30.265Z,24.60
2022-09-02T23:28:04.626Z,24.60
2022-09-02T23:30:31.740Z,24.60
2022-09-02T23:33:27.777Z,24.50
2022-09-02T23:36:00.555Z,24.50
2022-09-02T23:38:44.136Z,24.50
2022-09-02T23:41:12.267Z,24.50
2022-09-02T23:43:42.362Z,24.50
2022-09-02T23:46:31.717Z,24.40
2022-09-02T23:49:05.468Z,24.40
2022-09-02T23:51:45.899Z,24.30
2022-09-02T23:54:15.809Z,24.30
2022-09-02T23:56:46.482Z,24.30
2022-09-02T23:59:54.201Z,24.30
